Weather observations for the past three days for
Del Rio, Del Rio International Airport
Metric (Imperial)
Date Time (cdt) Wind (kph) Vis. (km) Weather Sky Cond. Temperature (ºC) Relative Humidity Wind Chill (°C) Heat Index (°C) Pressure Precipitation (cm)
Air Dwpt 6 hour altimeter (cm) sea level (mb) 1 hr 3 hr 6 hr
Max. Min.
10 09:53 SE 17 16.09 Fair CLR 26.7 21.1 71% 28 75.84 1010.1
10 08:53 SE 15 16.09 Fair CLR 24.4 20.6 79% 25 75.87 1010.4
10 07:53 E 15 16.09 Fair CLR 22.8 19.4 81% 75.82 1009.8
10 06:53 E 11 16.09 Fair CLR 22.2 18.9 25.6 22.2 82% 75.79 1009.5
10 05:53 E 13 16.09 Fair CLR 22.8 18.3 76% 75.77 1009.2
10 04:53 E 13 16.09 Fair CLR 22.8 17.8 74% 75.74 1008.8
10 03:53 E 17 16.09 Fair CLR 23.9 17.8 69% 25 75.72 1008.4
10 02:53 E 11 16.09 Fair CLR 23.9 17.2 66% 25 75.74 1008.5
10 01:53 E 11 16.09 Fair CLR 25 17.2 62% 26 75.74 1008.7
10 00:53 SE 15 16.09 Fair CLR 25.6 17.8 32.8 25.6 62% 27 75.74 1008.8
09 23:53 E 11 16.09 Fair CLR 27.2 17.2 54% 28 75.74 1008.6
09 22:53 E 15 16.09 Fair CLR 27.2 19.4 62% 29 75.72 1008.3
09 21:53 NE 6 16.09 Fair CLR 28.3 19.4 59% 30 75.64 1007.4
09 20:53 E 7 16.09 Fair CLR 30 18.3 49% 31 75.59 1006.7
09 19:53 SE 9 16.09 Fair CLR 32.2 16.1 38% 32 75.54 1006.0
09 18:53 S 6 16.09 Fair CLR 32.8 16.7 32.8 27.8 38% 33 75.54 1006.0
09 17:53 Calm 16.09 Fair CLR 32.8 16.1 37% 33 75.54 1006.0
09 16:53 NW 6 16.09 Fair CLR 31.7 17.8 43% 32 75.57 1006.6
09 15:53 Vrbl 6 16.09 Fair CLR 31.1 17.8 45% 32 75.64 1007.4
09 14:53 Vrbl 11 16.09 Fair CLR 30.6 18.3 48% 32 75.72 1008.6
09 13:53 SE 13 16.09 A Few Clouds FEW030 28.9 19.4 57% 30 75.77 1009.3
09 12:53 SE 15 16.09 Mostly Cloudy BKN025 BKN031 27.8 21.1 28.3 21.7 67% 30 75.84 1010.3
09 11:53 SE 9 16.09 Partly Cloudy SCT015 26.7 21.7 74% 29 75.9 1010.8
09 10:53 S 15 16.09 Overcast OVC012 24.4 21.1 82% 25 75.92 1011.5
09 09:53 E 7 16.09 Mostly Cloudy BKN011 BKN044 23.9 20.6 82% 24 75.95 1011.6
09 08:53 SE 9 16.09 Overcast SCT010 OVC031 21.7 19.4 87% 75.9 1011.0
09 07:53 NE 6 16.09 Overcast OVC007 20.6 19.4 93% 75.9 1011.1
09 06:53 N 9 16.09 Overcast OVC009 19.4 18.9 21.7 18.3 97% 75.82 1009.9
09 05:53 Calm 16.09 Mostly Cloudy BKN010 18.3 17.8 97% 75.72 1008.8
09 04:53 NW 6 16.09 Fair CLR 18.3 17.8 97% 75.69 1008.5
09 03:53 E 6 16.09 Fair CLR 19.4 18.9 97% 75.69 1008.3
09 02:53 SE 9 16.09 Fair CLR 18.9 18.3 96% 75.74 1009.1
09 01:53 NE 6 16.09 Fair CLR 20.6 18.9 90% 75.77 1009.4
09 00:53 NE 7 16.09 Fair CLR 21.7 18.3 27.2 21.1 81% 75.74 1009.1
08 23:53 E 9 16.09 Fair CLR 21.7 18.9 84% 75.77 1009.5
08 22:53 Calm 16.09 A Few Clouds FEW039 22.8 18.9 79% 75.82 1010.3
08 21:53 SE 11 16.09 Fair CLR 23.9 18.9 74% 25 75.69 1008.3
08 20:53 E 9 16.09 A Few Clouds FEW038 25 18.9 69% 26 75.62 1007.5
08 19:53 NE 9 16.09 Fair CLR 26.1 18.9 65% 27 75.54 1006.4
08 18:53 Calm 16.09 Fair CLR 26.7 18.3 27.2 20.6 60% 28 75.54 1006.5
08 17:53 Calm 16.09 Partly Cloudy SCT032 26.1 18.3 62% 27 75.54 1006.4
08 16:53 E 7 16.09 Overcast OVC030 26.1 17.8 60% 27 75.59 1006.9
08 15:53 Calm 16.09 Overcast OVC027 24.4 17.8 67% 25 75.67 1008.0
08 14:53 Vrbl 9 16.09 Overcast OVC027 23.9 17.8 69% 25 75.72 1008.7
08 13:53 SE 6 16.09 Overcast OVC018 21.7 17.2 76% 75.77 1009.6
08 12:53 SE 7 16.09 Overcast OVC014 20.6 17.2 21.1 17.8 81% 75.84 1010.5
08 11:53 SE 9 16.09 Overcast OVC013 20 17.2 84% 75.92 1011.5
08 10:53 SE 7 16.09 Overcast OVC011 19.4 16.7 84% 75.95 1011.9
08 09:53 E 11 16.09 Overcast OVC009 18.3 16.1 87% 75.97 1012.4
08 08:53 E 15 16.09 Overcast OVC010 17.8 16.1 90% 76 1012.7
08 07:53 E 15 16.09 Overcast OVC016 17.8 15.6 87% 75.95 1012.2
08 06:53 E 7 16.09 Overcast OVC016 17.8 16.1 17.8 17.2 90% 75.95 1012.0
08 05:53 E 11 16.09 Overcast OVC017 17.8 16.1 90% 75.95 1012.2
08 04:53 E 7 16.09 Overcast OVC018 17.2 16.7 97% 75.95 1012.3
08 03:53 NE 6 16.09 Overcast OVC021 17.2 16.1 93% 76 1012.9
08 02:53 E 6 16.09 Overcast OVC020 17.8 16.1 90% 76 1013.0
08 01:53 SE 6 16.09 Overcast OVC019 17.2 15.6 90% 76.05 1013.5
08 00:53 Calm 16.09 Overcast OVC019 17.2 16.1 17.2 16.7 93% 76.1 1014.1
07 23:53 Calm 16.09 Overcast OVC020 17.2 15.6 90% 76.1 1014.3
07 22:53 Calm 16.09 Overcast OVC016 17.2 15.6 90% 76.12 1014.5
07 21:53 Calm 16.09 Overcast OVC018 17.2 15.6 90% 76.1 1014.1
07 20:53 E 6 16.09 Overcast OVC020 17.2 15.6 90% 76.07 1013.8
07 19:53 E 9 16.09 Overcast FEW010 OVC024 17.2 15.6 90% 76.05 1013.4
07 18:53 Vrbl 7 16.09 Overcast BKN010 OVC028 17.2 15.6 17.8 16.7 90% 76.1 1013.9 0.08
07 17:53 NE 9 16.09 Overcast OVC012 17.2 15.6 90% 76.07 1013.8
07 16:53 N 7 14.48 Overcast SCT004 BKN008 OVC033 16.7 16.1 96% 76.12 1014.3 0.05
07 15:51 N 11 16.09 Overcast SCT007 OVC012 16.7 15.6 93% 76.17 1014.9 0.03 0.03
07 14:53 N 11 16.09 Overcast OVC011 16.7 15.6 93% 76.23 1015.7
07 13:53 N 9 16.09 Overcast OVC011 17.2 15 87% 76.25 1016.1
07 12:53 N 11 16.09 Overcast OVC010 17.8 15.6 20.6 16.7 87% 76.25 1016.1 0.05
07 11:53 N 13 16.09 Overcast OVC009 16.7 15 90% 76.28 1016.3 0.03
07 10:53 NE 19 16.09 Thunderstorm in Vicinity FEW008 OVC019 16.7 15 90% 76.28 1016.4 0.03
Date Time (cdt) Wind (kph) Vis. (km) Weather Sky Cond. Air Dwpt Max. Min. Relative Humidity Wind Chill (°C) Heat Index (°C) altimeter (cm) sea level (mb) 1 hr 3 hr 6 hr
6 hour
Temperature (ºC) Pressure Precipitation (cm)